sensor_id;sensor_type;location;lat;lon;timestamp;P1;durP1;ratioP1;P2;durP2;ratioP2
33862;SDS011;20158;51.436;-2.742;2022-11-13T00:01:24;12.30;;;11.00;;
33862;SDS011;20158;51.436;-2.742;2022-11-13T00:04:28;12.73;;;11.38;;
33862;SDS011;20158;51.436;-2.742;2022-11-13T00:07:31;13.25;;;10.10;;
33862;SDS011;20158;51.436;-2.742;2022-11-13T00:10:38;14.90;;;11.27;;
33862;SDS011;20158;51.436;-2.742;2022-11-13T00:13:42;16.80;;;12.23;;
33862;SDS011;20158;51.436;-2.742;2022-11-13T00:16:46;12.25;;;11.07;;
33862;SDS011;20158;51.436;-2.742;2022-11-13T00:19:49;12.73;;;11.10;;
33862;SDS011;20158;51.436;-2.742;2022-11-13T00:22:52;15.43;;;12.48;;
33862;SDS011;20158;51.436;-2.742;2022-11-13T00:25:56;11.95;;;10.75;;
33862;SDS011;20158;51.436;-2.742;2022-11-13T00:29:04;17.88;;;12.05;;
33862;SDS011;20158;51.436;-2.742;2022-11-13T00:32:08;12.18;;;10.18;;
33862;SDS011;20158;51.436;-2.742;2022-11-13T00:35:11;13.65;;;11.00;;
33862;SDS011;20158;51.436;-2.742;2022-11-13T00:38:13;13.68;;;11.02;;
33862;SDS011;20158;51.436;-2.742;2022-11-13T00:41:17;13.90;;;11.45;;
33862;SDS011;20158;51.436;-2.742;2022-11-13T00:44:21;11.95;;;10.32;;
33862;SDS011;20158;51.436;-2.742;2022-11-13T00:47:24;13.95;;;11.27;;
33862;SDS011;20158;51.436;-2.742;2022-11-13T00:50:28;13.65;;;11.05;;
33862;SDS011;20158;51.436;-2.742;2022-11-13T00:53:30;12.98;;;11.50;;
33862;SDS011;20158;51.436;-2.742;2022-11-13T00:56:34;11.32;;;10.23;;
33862;SDS011;20158;51.436;-2.742;2022-11-13T01:02:41;13.80;;;11.05;;
33862;SDS011;20158;51.436;-2.742;2022-11-13T01:05:44;13.02;;;11.43;;
33862;SDS011;20158;51.436;-2.742;2022-11-13T01:08:52;14.15;;;11.02;;
33862;SDS011;20158;51.436;-2.742;2022-11-13T01:11:57;13.05;;;11.75;;
33862;SDS011;20158;51.436;-2.742;2022-11-13T01:15:00;11.80;;;10.55;;
33862;SDS011;20158;51.436;-2.742;2022-11-13T01:24:16;13.40;;;11.10;;
33862;SDS011;20158;51.436;-2.742;2022-11-13T01:27:19;12.18;;;10.95;;
33862;SDS011;20158;51.436;-2.742;2022-11-13T01:30:22;12.20;;;11.10;;
33862;SDS011;20158;51.436;-2.742;2022-11-13T01:33:25;12.30;;;11.00;;
33862;SDS011;20158;51.436;-2.742;2022-11-13T01:36:28;15.90;;;12.18;;
33862;SDS011;20158;51.436;-2.742;2022-11-13T01:39:31;13.33;;;10.23;;
33862;SDS011;20158;51.436;-2.742;2022-11-13T01:42:34;12.48;;;11.35;;
33862;SDS011;20158;51.436;-2.742;2022-11-13T01:52:33;12.60;;;11.15;;
33862;SDS011;20158;51.436;-2.742;2022-11-13T01:55:39;13.00;;;11.35;;
33862;SDS011;20158;51.436;-2.742;2022-11-13T01:58:45;15.88;;;11.95;;
33862;SDS011;20158;51.436;-2.742;2022-11-13T02:01:54;13.02;;;11.00;;
33862;SDS011;20158;51.436;-2.742;2022-11-13T02:04:58;13.25;;;11.88;;
33862;SDS011;20158;51.436;-2.742;2022-11-13T02:08:01;12.55;;;10.70;;
33862;SDS011;20158;51.436;-2.742;2022-11-13T02:14:08;15.50;;;10.68;;
33862;SDS011;20158;51.436;-2.742;2022-11-13T02:17:16;13.20;;;11.30;;
33862;SDS011;20158;51.436;-2.742;2022-11-13T02:20:26;11.95;;;10.80;;
33862;SDS011;20158;51.436;-2.742;2022-11-13T02:23:34;13.98;;;12.25;;
33862;SDS011;20158;51.436;-2.742;2022-11-13T02:27:08;13.32;;;11.20;;
33862;SDS011;20158;51.436;-2.742;2022-11-13T02:30:19;12.27;;;11.05;;
33862;SDS011;20158;51.436;-2.742;2022-11-13T02:33:27;14.00;;;10.57;;
33862;SDS011;20158;51.436;-2.742;2022-11-13T02:36:32;13.90;;;11.30;;
33862;SDS011;20158;51.436;-2.742;2022-11-13T02:39:37;12.23;;;11.05;;
33862;SDS011;20158;51.436;-2.742;2022-11-13T02:42:40;13.98;;;10.82;;
33862;SDS011;20158;51.436;-2.742;2022-11-13T02:45:44;13.43;;;10.63;;
33862;SDS011;20158;51.436;-2.742;2022-11-13T02:48:47;13.30;;;10.77;;
33862;SDS011;20158;51.436;-2.742;2022-11-13T02:51:49;13.05;;;10.38;;
33862;SDS011;20158;51.436;-2.742;2022-11-13T02:54:53;11.60;;;10.27;;
33862;SDS011;20158;51.436;-2.742;2022-11-13T02:57:56;13.32;;;11.05;;
33862;SDS011;20158;51.436;-2.742;2022-11-13T03:01:02;12.70;;;11.40;;
33862;SDS011;20158;51.436;-2.742;2022-11-13T03:04:06;13.15;;;11.82;;
33862;SDS011;20158;51.436;-2.742;2022-11-13T03:07:09;14.93;;;11.50;;
33862;SDS011;20158;51.436;-2.742;2022-11-13T03:10:13;13.35;;;11.32;;
33862;SDS011;20158;51.436;-2.742;2022-11-13T03:13:16;13.18;;;10.93;;
33862;SDS011;20158;51.436;-2.742;2022-11-13T03:16:19;13.32;;;11.48;;
33862;SDS011;20158;51.436;-2.742;2022-11-13T03:19:23;11.95;;;10.75;;
33862;SDS011;20158;51.436;-2.742;2022-11-13T03:22:26;14.50;;;11.68;;
33862;SDS011;20158;51.436;-2.742;2022-11-13T03:25:30;15.82;;;11.35;;
33862;SDS011;20158;51.436;-2.742;2022-11-13T03:28:33;12.82;;;11.60;;
33862;SDS011;20158;51.436;-2.742;2022-11-13T03:31:37;16.10;;;11.63;;
33862;SDS011;20158;51.436;-2.742;2022-11-13T03:34:40;13.00;;;11.65;;
33862;SDS011;20158;51.436;-2.742;2022-11-13T03:37:44;13.52;;;11.10;;
33862;SDS011;20158;51.436;-2.742;2022-11-13T03:40:47;12.13;;;10.98;;
33862;SDS011;20158;51.436;-2.742;2022-11-13T03:43:50;14.20;;;11.32;;
33862;SDS011;20158;51.436;-2.742;2022-11-13T03:49:57;13.13;;;10.65;;
33862;SDS011;20158;51.436;-2.742;2022-11-13T03:53:01;14.27;;;12.40;;
33862;SDS011;20158;51.436;-2.742;2022-11-13T03:56:04;14.85;;;10.75;;
33862;SDS011;20158;51.436;-2.742;2022-11-13T03:59:08;11.40;;;10.27;;
33862;SDS011;20158;51.436;-2.742;2022-11-13T04:02:11;15.63;;;11.23;;
33862;SDS011;20158;51.436;-2.742;2022-11-13T04:05:14;12.35;;;10.07;;
33862;SDS011;20158;51.436;-2.742;2022-11-13T04:08:18;12.57;;;11.30;;
33862;SDS011;20158;51.436;-2.742;2022-11-13T04:11:21;12.30;;;11.05;;
33862;SDS011;20158;51.436;-2.742;2022-11-13T04:14:24;14.35;;;11.30;;
33862;SDS011;20158;51.436;-2.742;2022-11-13T04:17:27;12.10;;;10.00;;
33862;SDS011;20158;51.436;-2.742;2022-11-13T04:20:30;12.75;;;10.02;;
33862;SDS011;20158;51.436;-2.742;2022-11-13T04:23:33;14.32;;;11.40;;
33862;SDS011;20158;51.436;-2.742;2022-11-13T04:26:36;12.00;;;10.20;;
33862;SDS011;20158;51.436;-2.742;2022-11-13T04:29:39;12.75;;;10.98;;
33862;SDS011;20158;51.436;-2.742;2022-11-13T04:35:46;14.57;;;11.45;;
33862;SDS011;20158;51.436;-2.742;2022-11-13T04:41:53;12.90;;;10.50;;
33862;SDS011;20158;51.436;-2.742;2022-11-13T04:45:16;12.10;;;10.13;;
33862;SDS011;20158;51.436;-2.742;2022-11-13T04:48:21;13.02;;;10.50;;
33862;SDS011;20158;51.436;-2.742;2022-11-13T04:51:24;12.33;;;9.50;;
33862;SDS011;20158;51.436;-2.742;2022-11-13T04:54:27;11.63;;;10.18;;
33862;SDS011;20158;51.436;-2.742;2022-11-13T04:57:30;12.73;;;11.13;;
33862;SDS011;20158;51.436;-2.742;2022-11-13T05:00:33;11.45;;;9.65;;
33862;SDS011;20158;51.436;-2.742;2022-11-13T05:03:36;10.77;;;9.68;;
33862;SDS011;20158;51.436;-2.742;2022-11-13T05:06:40;13.45;;;9.65;;
33862;SDS011;20158;51.436;-2.742;2022-11-13T05:09:43;12.07;;;9.73;;
33862;SDS011;20158;51.436;-2.742;2022-11-13T05:12:47;12.35;;;11.15;;
33862;SDS011;20158;51.436;-2.742;2022-11-13T05:15:50;14.20;;;12.77;;
33862;SDS011;20158;51.436;-2.742;2022-11-13T05:21:56;12.32;;;10.95;;
33862;SDS011;20158;51.436;-2.742;2022-11-13T05:24:59;10.95;;;9.70;;
33862;SDS011;20158;51.436;-2.742;2022-11-13T05:28:03;13.80;;;10.88;;
33862;SDS011;20158;51.436;-2.742;2022-11-13T05:31:08;12.23;;;10.93;;
33862;SDS011;20158;51.436;-2.742;2022-11-13T05:34:13;12.40;;;10.93;;
33862;SDS011;20158;51.436;-2.742;2022-11-13T05:37:17;13.23;;;11.88;;
33862;SDS011;20158;51.436;-2.742;2022-11-13T05:40:20;12.23;;;11.10;;
33862;SDS011;20158;51.436;-2.742;2022-11-13T05:43:24;13.30;;;11.43;;
33862;SDS011;20158;51.436;-2.742;2022-11-13T05:46:27;10.85;;;9.85;;
33862;SDS011;20158;51.436;-2.742;2022-11-13T05:49:31;12.23;;;10.57;;
33862;SDS011;20158;51.436;-2.742;2022-11-13T05:52:34;12.32;;;11.13;;
33862;SDS011;20158;51.436;-2.742;2022-11-13T05:55:37;12.50;;;11.30;;
33862;SDS011;20158;51.436;-2.742;2022-11-13T05:58:41;13.38;;;10.68;;
33862;SDS011;20158;51.436;-2.742;2022-11-13T06:01:46;13.75;;;11.02;;
33862;SDS011;20158;51.436;-2.742;2022-11-13T06:04:49;13.68;;;11.77;;
33862;SDS011;20158;51.436;-2.742;2022-11-13T06:07:53;13.30;;;11.93;;
33862;SDS011;20158;51.436;-2.742;2022-11-13T06:10:59;12.60;;;11.40;;
33862;SDS011;20158;51.436;-2.742;2022-11-13T06:14:08;11.73;;;10.52;;
33862;SDS011;20158;51.436;-2.742;2022-11-13T06:17:11;14.40;;;11.18;;
33862;SDS011;20158;51.436;-2.742;2022-11-13T06:20:14;12.68;;;11.45;;
33862;SDS011;20158;51.436;-2.742;2022-11-13T06:23:17;13.80;;;12.35;;
33862;SDS011;20158;51.436;-2.742;2022-11-13T06:26:22;14.15;;;11.45;;
33862;SDS011;20158;51.436;-2.742;2022-11-13T06:29:26;13.32;;;11.95;;
33862;SDS011;20158;51.436;-2.742;2022-11-13T06:35:33;13.95;;;11.57;;
33862;SDS011;20158;51.436;-2.742;2022-11-13T06:38:37;13.48;;;12.05;;
33862;SDS011;20158;51.436;-2.742;2022-11-13T06:41:41;13.38;;;12.02;;
33862;SDS011;20158;51.436;-2.742;2022-11-13T06:44:44;13.70;;;12.25;;
33862;SDS011;20158;51.436;-2.742;2022-11-13T06:47:48;12.95;;;11.75;;
33862;SDS011;20158;51.436;-2.742;2022-11-13T06:50:51;14.60;;;13.13;;
33862;SDS011;20158;51.436;-2.742;2022-11-13T06:53:54;13.80;;;12.35;;
33862;SDS011;20158;51.436;-2.742;2022-11-13T06:56:58;14.05;;;12.55;;
33862;SDS011;20158;51.436;-2.742;2022-11-13T07:00:02;13.90;;;12.50;;
33862;SDS011;20158;51.436;-2.742;2022-11-13T07:03:13;14.10;;;12.38;;
33862;SDS011;20158;51.436;-2.742;2022-11-13T07:06:20;14.73;;;12.45;;
33862;SDS011;20158;51.436;-2.742;2022-11-13T07:09:25;14.73;;;13.23;;
33862;SDS011;20158;51.436;-2.742;2022-11-13T07:12:28;15.80;;;12.93;;
33862;SDS011;20158;51.436;-2.742;2022-11-13T07:15:32;15.38;;;13.77;;
33862;SDS011;20158;51.436;-2.742;2022-11-13T07:18:36;16.13;;;14.18;;
33862;SDS011;20158;51.436;-2.742;2022-11-13T07:21:40;16.65;;;14.95;;
33862;SDS011;20158;51.436;-2.742;2022-11-13T07:24:43;15.52;;;13.93;;
33862;SDS011;20158;51.436;-2.742;2022-11-13T07:27:46;16.73;;;14.82;;
33862;SDS011;20158;51.436;-2.742;2022-11-13T07:30:49;15.90;;;14.20;;
33862;SDS011;20158;51.436;-2.742;2022-11-13T07:33:52;14.88;;;13.43;;
33862;SDS011;20158;51.436;-2.742;2022-11-13T07:36:56;16.67;;;15.07;;
33862;SDS011;20158;51.436;-2.742;2022-11-13T07:39:59;19.75;;;14.90;;
33862;SDS011;20158;51.436;-2.742;2022-11-13T07:43:02;16.58;;;14.18;;
33862;SDS011;20158;51.436;-2.742;2022-11-13T07:46:05;16.88;;;15.25;;
33862;SDS011;20158;51.436;-2.742;2022-11-13T07:49:08;16.13;;;14.45;;
33862;SDS011;20158;51.436;-2.742;2022-11-13T07:52:11;17.25;;;14.82;;
33862;SDS011;20158;51.436;-2.742;2022-11-13T07:55:15;17.48;;;14.80;;
33862;SDS011;20158;51.436;-2.742;2022-11-13T07:58:17;16.88;;;15.07;;
33862;SDS011;20158;51.436;-2.742;2022-11-13T08:04:24;16.75;;;14.88;;
33862;SDS011;20158;51.436;-2.742;2022-11-13T08:07:28;19.30;;;15.82;;
33862;SDS011;20158;51.436;-2.742;2022-11-13T08:10:31;18.65;;;16.30;;
33862;SDS011;20158;51.436;-2.742;2022-11-13T08:16:39;17.17;;;15.40;;
33862;SDS011;20158;51.436;-2.742;2022-11-13T08:19:42;18.25;;;16.25;;
33862;SDS011;20158;51.436;-2.742;2022-11-13T08:22:45;19.40;;;15.60;;
33862;SDS011;20158;51.436;-2.742;2022-11-13T08:25:49;32.80;;;17.30;;
33862;SDS011;20158;51.436;-2.742;2022-11-13T08:28:52;19.33;;;15.50;;
33862;SDS011;20158;51.436;-2.742;2022-11-13T08:31:54;18.30;;;15.47;;
33862;SDS011;20158;51.436;-2.742;2022-11-13T08:34:58;16.52;;;14.82;;
33862;SDS011;20158;51.436;-2.742;2022-11-13T08:41:08;18.33;;;15.73;;
33862;SDS011;20158;51.436;-2.742;2022-11-13T08:47:16;16.90;;;15.18;;
33862;SDS011;20158;51.436;-2.742;2022-11-13T08:50:19;19.40;;;16.75;;
33862;SDS011;20158;51.436;-2.742;2022-11-13T08:53:23;18.20;;;16.33;;
33862;SDS011;20158;51.436;-2.742;2022-11-13T08:56:26;20.23;;;16.00;;
33862;SDS011;20158;51.436;-2.742;2022-11-13T08:59:29;22.73;;;17.92;;
33862;SDS011;20158;51.436;-2.742;2022-11-13T09:02:32;33.67;;;21.77;;
33862;SDS011;20158;51.436;-2.742;2022-11-13T09:05:35;35.33;;;22.95;;
33862;SDS011;20158;51.436;-2.742;2022-11-13T09:08:38;35.38;;;25.58;;
33862;SDS011;20158;51.436;-2.742;2022-11-13T09:11:42;48.28;;;28.02;;
33862;SDS011;20158;51.436;-2.742;2022-11-13T09:14:46;46.70;;;31.63;;
33862;SDS011;20158;51.436;-2.742;2022-11-13T09:17:49;43.05;;;30.25;;
33862;SDS011;20158;51.436;-2.742;2022-11-13T09:20:52;39.92;;;27.90;;
33862;SDS011;20158;51.436;-2.742;2022-11-13T09:23:56;34.15;;;25.58;;
33862;SDS011;20158;51.436;-2.742;2022-11-13T09:27:00;32.45;;;23.98;;
33862;SDS011;20158;51.436;-2.742;2022-11-13T09:30:03;33.95;;;24.67;;
33862;SDS011;20158;51.436;-2.742;2022-11-13T09:39:15;27.02;;;21.13;;
33862;SDS011;20158;51.436;-2.742;2022-11-13T09:42:20;29.80;;;20.90;;
33862;SDS011;20158;51.436;-2.742;2022-11-13T09:45:26;30.00;;;22.63;;
33862;SDS011;20158;51.436;-2.742;2022-11-13T09:48:38;25.08;;;21.27;;
33862;SDS011;20158;51.436;-2.742;2022-11-13T09:51:49;27.88;;;20.58;;
33862;SDS011;20158;51.436;-2.742;2022-11-13T09:54:55;35.17;;;21.80;;
33862;SDS011;20158;51.436;-2.742;2022-11-13T10:01:38;34.72;;;22.73;;
33862;SDS011;20158;51.436;-2.742;2022-11-13T10:04:55;30.33;;;22.05;;
33862;SDS011;20158;51.436;-2.742;2022-11-13T10:08:18;33.85;;;22.75;;
33862;SDS011;20158;51.436;-2.742;2022-11-13T10:11:39;29.85;;;22.13;;
33862;SDS011;20158;51.436;-2.742;2022-11-13T10:14:48;26.63;;;20.83;;
33862;SDS011;20158;51.436;-2.742;2022-11-13T10:18:00;23.48;;;19.38;;
33862;SDS011;20158;51.436;-2.742;2022-11-13T10:24:14;29.52;;;23.20;;
33862;SDS011;20158;51.436;-2.742;2022-11-13T10:27:26;23.15;;;18.85;;
33862;SDS011;20158;51.436;-2.742;2022-11-13T10:30:30;23.25;;;19.75;;
33862;SDS011;20158;51.436;-2.742;2022-11-13T10:33:33;21.38;;;18.48;;
33862;SDS011;20158;51.436;-2.742;2022-11-13T10:40:05;22.00;;;17.75;;
33862;SDS011;20158;51.436;-2.742;2022-11-13T10:43:22;20.45;;;17.05;;
33862;SDS011;20158;51.436;-2.742;2022-11-13T10:46:27;19.88;;;17.20;;
33862;SDS011;20158;51.436;-2.742;2022-11-13T10:49:32;24.20;;;17.90;;
33862;SDS011;20158;51.436;-2.742;2022-11-13T10:52:42;21.58;;;18.50;;
33862;SDS011;20158;51.436;-2.742;2022-11-13T10:55:49;21.23;;;17.52;;
33862;SDS011;20158;51.436;-2.742;2022-11-13T10:59:07;19.75;;;17.15;;
33862;SDS011;20158;51.436;-2.742;2022-11-13T11:05:19;20.38;;;16.65;;
33862;SDS011;20158;51.436;-2.742;2022-11-13T11:08:27;18.98;;;16.95;;
33862;SDS011;20158;51.436;-2.742;2022-11-13T11:11:32;17.35;;;15.52;;
33862;SDS011;20158;51.436;-2.742;2022-11-13T11:18:05;16.52;;;14.82;;
33862;SDS011;20158;51.436;-2.742;2022-11-13T11:21:18;16.58;;;14.80;;
33862;SDS011;20158;51.436;-2.742;2022-11-13T11:24:28;18.52;;;15.35;;
33862;SDS011;20158;51.436;-2.742;2022-11-13T11:27:48;16.08;;;14.38;;
33862;SDS011;20158;51.436;-2.742;2022-11-13T11:31:14;18.35;;;16.45;;
33862;SDS011;20158;51.436;-2.742;2022-11-13T11:34:44;23.88;;;18.23;;
33862;SDS011;20158;51.436;-2.742;2022-11-13T11:38:09;23.50;;;17.40;;
33862;SDS011;20158;51.436;-2.742;2022-11-13T11:41:21;20.17;;;18.08;;
33862;SDS011;20158;51.436;-2.742;2022-11-13T11:45:14;17.80;;;15.95;;
33862;SDS011;20158;51.436;-2.742;2022-11-13T11:47:58;18.02;;;16.13;;
33862;SDS011;20158;51.436;-2.742;2022-11-13T11:54:28;17.42;;;15.55;;
33862;SDS011;20158;51.436;-2.742;2022-11-13T11:57:50;18.17;;;14.75;;
33862;SDS011;20158;51.436;-2.742;2022-11-13T12:01:02;13.82;;;12.45;;
33862;SDS011;20158;51.436;-2.742;2022-11-13T12:11:04;17.60;;;13.43;;
33862;SDS011;20158;51.436;-2.742;2022-11-13T12:34:28;17.88;;;15.85;;
33862;SDS011;20158;51.436;-2.742;2022-11-13T12:44:23;18.70;;;14.45;;
33862;SDS011;20158;51.436;-2.742;2022-11-13T12:47:32;35.97;;;19.45;;
33862;SDS011;20158;51.436;-2.742;2022-11-13T12:50:37;24.27;;;15.80;;
33862;SDS011;20158;51.436;-2.742;2022-11-13T12:54:23;20.83;;;14.35;;
33862;SDS011;20158;51.436;-2.742;2022-11-13T13:00:22;17.65;;;13.02;;
33862;SDS011;20158;51.436;-2.742;2022-11-13T13:07:00;13.20;;;11.05;;
33862;SDS011;20158;51.436;-2.742;2022-11-13T13:10:47;12.93;;;10.85;;
33862;SDS011;20158;51.436;-2.742;2022-11-13T13:23:29;30.85;;;10.70;;
33862;SDS011;20158;51.436;-2.742;2022-11-13T13:26:43;15.38;;;10.07;;
33862;SDS011;20158;51.436;-2.742;2022-11-13T13:29:48;11.63;;;9.30;;
33862;SDS011;20158;51.436;-2.742;2022-11-13T13:39:31;12.68;;;9.20;;
33862;SDS011;20158;51.436;-2.742;2022-11-13T13:46:19;10.88;;;9.77;;
33862;SDS011;20158;51.436;-2.742;2022-11-13T13:49:26;10.18;;;8.80;;
33862;SDS011;20158;51.436;-2.742;2022-11-13T13:52:30;10.88;;;8.52;;
33862;SDS011;20158;51.436;-2.742;2022-11-13T13:55:36;9.63;;;8.10;;
33862;SDS011;20158;51.436;-2.742;2022-11-13T13:58:46;10.52;;;8.07;;
33862;SDS011;20158;51.436;-2.742;2022-11-13T14:01:54;10.43;;;8.25;;
33862;SDS011;20158;51.436;-2.742;2022-11-13T14:05:00;9.15;;;7.82;;
33862;SDS011;20158;51.436;-2.742;2022-11-13T14:08:03;8.95;;;7.60;;
33862;SDS011;20158;51.436;-2.742;2022-11-13T14:11:23;8.93;;;7.72;;
33862;SDS011;20158;51.436;-2.742;2022-11-13T14:14:28;9.35;;;8.13;;
33862;SDS011;20158;51.436;-2.742;2022-11-13T14:17:32;8.82;;;7.35;;
33862;SDS011;20158;51.436;-2.742;2022-11-13T14:20:53;8.40;;;7.47;;
33862;SDS011;20158;51.436;-2.742;2022-11-13T14:23:58;8.80;;;7.65;;
33862;SDS011;20158;51.436;-2.742;2022-11-13T14:27:04;8.82;;;7.95;;
33862;SDS011;20158;51.436;-2.742;2022-11-13T14:33:44;10.93;;;7.68;;
33862;SDS011;20158;51.436;-2.742;2022-11-13T14:36:50;8.63;;;6.80;;
33862;SDS011;20158;51.436;-2.742;2022-11-13T14:39:54;8.27;;;7.25;;
33862;SDS011;20158;51.436;-2.742;2022-11-13T14:43:02;8.10;;;6.55;;
33862;SDS011;20158;51.436;-2.742;2022-11-13T14:46:24;8.60;;;7.13;;
33862;SDS011;20158;51.436;-2.742;2022-11-13T14:49:38;11.25;;;7.32;;
33862;SDS011;20158;51.436;-2.742;2022-11-13T14:52:41;7.60;;;6.95;;
33862;SDS011;20158;51.436;-2.742;2022-11-13T14:55:51;9.07;;;8.00;;
33862;SDS011;20158;51.436;-2.742;2022-11-13T14:59:05;7.72;;;6.70;;
33862;SDS011;20158;51.436;-2.742;2022-11-13T15:02:13;6.82;;;6.25;;
33862;SDS011;20158;51.436;-2.742;2022-11-13T15:05:16;10.07;;;6.70;;
33862;SDS011;20158;51.436;-2.742;2022-11-13T15:08:19;8.57;;;6.97;;
33862;SDS011;20158;51.436;-2.742;2022-11-13T15:11:23;14.18;;;8.13;;
33862;SDS011;20158;51.436;-2.742;2022-11-13T15:14:27;11.38;;;7.32;;
33862;SDS011;20158;51.436;-2.742;2022-11-13T15:17:30;10.85;;;7.70;;
33862;SDS011;20158;51.436;-2.742;2022-11-13T15:20:34;7.22;;;6.43;;
33862;SDS011;20158;51.436;-2.742;2022-11-13T15:23:37;10.60;;;6.97;;
33862;SDS011;20158;51.436;-2.742;2022-11-13T15:26:44;10.00;;;7.65;;
33862;SDS011;20158;51.436;-2.742;2022-11-13T15:29:47;8.95;;;6.78;;
33862;SDS011;20158;51.436;-2.742;2022-11-13T15:32:50;8.50;;;6.95;;
33862;SDS011;20158;51.436;-2.742;2022-11-13T15:36:00;9.55;;;6.03;;
33862;SDS011;20158;51.436;-2.742;2022-11-13T15:39:04;8.50;;;7.22;;
33862;SDS011;20158;51.436;-2.742;2022-11-13T15:42:12;8.98;;;6.32;;
33862;SDS011;20158;51.436;-2.742;2022-11-13T15:45:17;10.55;;;7.55;;
33862;SDS011;20158;51.436;-2.742;2022-11-13T15:48:21;7.78;;;6.95;;
33862;SDS011;20158;51.436;-2.742;2022-11-13T15:51:32;8.20;;;7.32;;
33862;SDS011;20158;51.436;-2.742;2022-11-13T15:54:42;8.10;;;6.35;;
33862;SDS011;20158;51.436;-2.742;2022-11-13T15:57:46;8.60;;;7.03;;
33862;SDS011;20158;51.436;-2.742;2022-11-13T16:00:50;8.75;;;6.30;;
33862;SDS011;20158;51.436;-2.742;2022-11-13T16:03:53;9.07;;;7.00;;
33862;SDS011;20158;51.436;-2.742;2022-11-13T16:06:57;8.70;;;6.45;;
33862;SDS011;20158;51.436;-2.742;2022-11-13T16:13:04;7.60;;;6.63;;
33862;SDS011;20158;51.436;-2.742;2022-11-13T16:16:14;8.52;;;6.75;;
33862;SDS011;20158;51.436;-2.742;2022-11-13T16:19:23;13.23;;;7.28;;
33862;SDS011;20158;51.436;-2.742;2022-11-13T16:22:27;8.52;;;6.57;;
33862;SDS011;20158;51.436;-2.742;2022-11-13T16:25:30;9.93;;;7.68;;
33862;SDS011;20158;51.436;-2.742;2022-11-13T16:28:33;7.53;;;6.20;;
33862;SDS011;20158;51.436;-2.742;2022-11-13T16:31:37;10.15;;;6.38;;
33862;SDS011;20158;51.436;-2.742;2022-11-13T16:34:40;9.05;;;6.05;;
33862;SDS011;20158;51.436;-2.742;2022-11-13T16:37:43;11.52;;;7.53;;
33862;SDS011;20158;51.436;-2.742;2022-11-13T16:43:50;9.65;;;8.45;;
33862;SDS011;20158;51.436;-2.742;2022-11-13T16:49:57;10.00;;;6.93;;
33862;SDS011;20158;51.436;-2.742;2022-11-13T16:53:02;9.35;;;6.45;;
33862;SDS011;20158;51.436;-2.742;2022-11-13T16:59:16;7.38;;;6.38;;
33862;SDS011;20158;51.436;-2.742;2022-11-13T17:02:19;12.48;;;6.95;;
33862;SDS011;20158;51.436;-2.742;2022-11-13T17:05:22;6.60;;;5.47;;
33862;SDS011;20158;51.436;-2.742;2022-11-13T17:08:26;7.75;;;5.78;;
33862;SDS011;20158;51.436;-2.742;2022-11-13T17:14:33;8.55;;;6.32;;
33862;SDS011;20158;51.436;-2.742;2022-11-13T17:20:40;7.72;;;6.20;;
33862;SDS011;20158;51.436;-2.742;2022-11-13T17:23:44;7.55;;;6.43;;
33862;SDS011;20158;51.436;-2.742;2022-11-13T17:29:52;10.90;;;9.37;;
33862;SDS011;20158;51.436;-2.742;2022-11-13T17:32:55;10.95;;;8.00;;
33862;SDS011;20158;51.436;-2.742;2022-11-13T17:39:02;13.38;;;8.23;;
33862;SDS011;20158;51.436;-2.742;2022-11-13T17:42:05;10.73;;;7.72;;
33862;SDS011;20158;51.436;-2.742;2022-11-13T17:45:09;8.48;;;7.53;;
33862;SDS011;20158;51.436;-2.742;2022-11-13T17:48:12;10.45;;;7.30;;
33862;SDS011;20158;51.436;-2.742;2022-11-13T17:51:15;8.95;;;7.50;;
33862;SDS011;20158;51.436;-2.742;2022-11-13T17:54:18;8.57;;;6.72;;
33862;SDS011;20158;51.436;-2.742;2022-11-13T17:57:21;10.23;;;6.95;;
33862;SDS011;20158;51.436;-2.742;2022-11-13T18:00:25;13.02;;;7.82;;
33862;SDS011;20158;51.436;-2.742;2022-11-13T18:06:33;10.35;;;7.43;;
33862;SDS011;20158;51.436;-2.742;2022-11-13T18:09:36;10.65;;;7.78;;
33862;SDS011;20158;51.436;-2.742;2022-11-13T18:12:39;11.90;;;8.93;;
33862;SDS011;20158;51.436;-2.742;2022-11-13T18:15:42;13.65;;;9.23;;
33862;SDS011;20158;51.436;-2.742;2022-11-13T18:18:49;10.15;;;7.65;;
33862;SDS011;20158;51.436;-2.742;2022-11-13T18:21:56;8.30;;;7.50;;
33862;SDS011;20158;51.436;-2.742;2022-11-13T18:28:05;9.00;;;7.20;;
33862;SDS011;20158;51.436;-2.742;2022-11-13T18:31:10;8.95;;;7.70;;
33862;SDS011;20158;51.436;-2.742;2022-11-13T18:34:15;13.27;;;8.65;;
33862;SDS011;20158;51.436;-2.742;2022-11-13T18:37:19;9.10;;;8.13;;
33862;SDS011;20158;51.436;-2.742;2022-11-13T18:40:22;10.50;;;7.85;;
33862;SDS011;20158;51.436;-2.742;2022-11-13T18:43:26;13.23;;;9.35;;
33862;SDS011;20158;51.436;-2.742;2022-11-13T18:46:29;10.45;;;9.23;;
33862;SDS011;20158;51.436;-2.742;2022-11-13T18:52:36;16.10;;;10.52;;
33862;SDS011;20158;51.436;-2.742;2022-11-13T18:55:39;10.65;;;9.52;;
33862;SDS011;20158;51.436;-2.742;2022-11-13T18:58:42;13.68;;;9.38;;
33862;SDS011;20158;51.436;-2.742;2022-11-13T19:01:46;11.93;;;9.82;;
33862;SDS011;20158;51.436;-2.742;2022-11-13T19:04:50;11.27;;;9.48;;
33862;SDS011;20158;51.436;-2.742;2022-11-13T19:07:53;14.77;;;9.82;;
33862;SDS011;20158;51.436;-2.742;2022-11-13T19:11:01;13.02;;;10.60;;
33862;SDS011;20158;51.436;-2.742;2022-11-13T19:14:07;12.23;;;9.75;;
33862;SDS011;20158;51.436;-2.742;2022-11-13T19:17:11;11.55;;;9.00;;
33862;SDS011;20158;51.436;-2.742;2022-11-13T19:20:14;12.60;;;9.25;;
33862;SDS011;20158;51.436;-2.742;2022-11-13T19:23:20;16.73;;;11.02;;
33862;SDS011;20158;51.436;-2.742;2022-11-13T19:26:23;10.90;;;8.93;;
33862;SDS011;20158;51.436;-2.742;2022-11-13T19:29:27;11.35;;;9.65;;
33862;SDS011;20158;51.436;-2.742;2022-11-13T19:32:31;10.13;;;8.77;;
33862;SDS011;20158;51.436;-2.742;2022-11-13T19:35:35;13.65;;;9.25;;
33862;SDS011;20158;51.436;-2.742;2022-11-13T19:38:39;9.18;;;8.05;;
33862;SDS011;20158;51.436;-2.742;2022-11-13T19:41:43;10.73;;;8.82;;
33862;SDS011;20158;51.436;-2.742;2022-11-13T19:44:47;9.55;;;8.55;;
33862;SDS011;20158;51.436;-2.742;2022-11-13T19:47:50;13.07;;;9.60;;
33862;SDS011;20158;51.436;-2.742;2022-11-13T19:50:53;12.45;;;9.25;;
33862;SDS011;20158;51.436;-2.742;2022-11-13T19:53:56;10.68;;;8.30;;
33862;SDS011;20158;51.436;-2.742;2022-11-13T19:57:00;11.95;;;8.52;;
33862;SDS011;20158;51.436;-2.742;2022-11-13T20:00:04;12.25;;;9.07;;
33862;SDS011;20158;51.436;-2.742;2022-11-13T20:03:08;13.98;;;8.70;;
33862;SDS011;20158;51.436;-2.742;2022-11-13T20:06:11;12.57;;;9.25;;
33862;SDS011;20158;51.436;-2.742;2022-11-13T20:09:16;12.02;;;8.77;;
33862;SDS011;20158;51.436;-2.742;2022-11-13T20:12:20;12.15;;;7.88;;
33862;SDS011;20158;51.436;-2.742;2022-11-13T20:15:25;9.02;;;8.00;;
33862;SDS011;20158;51.436;-2.742;2022-11-13T20:18:28;10.20;;;8.82;;
33862;SDS011;20158;51.436;-2.742;2022-11-13T20:21:31;8.80;;;7.93;;
33862;SDS011;20158;51.436;-2.742;2022-11-13T20:24:34;11.30;;;8.75;;
33862;SDS011;20158;51.436;-2.742;2022-11-13T20:27:37;9.68;;;8.10;;
33862;SDS011;20158;51.436;-2.742;2022-11-13T20:30:41;11.63;;;8.80;;
33862;SDS011;20158;51.436;-2.742;2022-11-13T20:33:45;12.77;;;8.35;;
33862;SDS011;20158;51.436;-2.742;2022-11-13T20:36:49;10.05;;;8.98;;
33862;SDS011;20158;51.436;-2.742;2022-11-13T20:42:56;11.17;;;7.93;;
33862;SDS011;20158;51.436;-2.742;2022-11-13T20:46:02;9.60;;;8.60;;
33862;SDS011;20158;51.436;-2.742;2022-11-13T20:49:11;9.95;;;8.95;;
33862;SDS011;20158;51.436;-2.742;2022-11-13T20:52:13;9.30;;;8.35;;